createdAt,value
2017-08-31T00:00:20.752Z,20.80
2017-08-31T00:02:48.303Z,20.70
2017-08-31T00:05:19.948Z,20.80
2017-08-31T00:07:47.451Z,20.80
2017-08-31T00:10:15.751Z,21.10
2017-08-31T00:12:43.440Z,21.10
2017-08-31T00:15:10.944Z,21.30
2017-08-31T00:17:38.467Z,21.30
2017-08-31T00:20:05.968Z,21.40
2017-08-31T00:22:33.475Z,21.40
2017-08-31T00:25:01.047Z,21.30
2017-08-31T00:27:28.561Z,21.10
2017-08-31T00:29:56.947Z,21.10
2017-08-31T00:32:24.461Z,21.20
2017-08-31T00:34:51.967Z,21.30
2017-08-31T00:37:20.228Z,21.30
2017-08-31T00:39:49.872Z,21.40
2017-08-31T00:42:20.411Z,21.30
2017-08-31T00:44:48.107Z,21.50
2017-08-31T00:47:15.635Z,21.50
2017-08-31T00:49:46.664Z,21.60
2017-08-31T00:52:14.543Z,21.50
2017-08-31T00:54:46.023Z,21.60
2017-08-31T00:57:13.569Z,21.70
2017-08-31T00:59:41.080Z,21.70
2017-08-31T01:02:08.940Z,21.70
2017-08-31T01:04:36.435Z,21.70
2017-08-31T01:07:03.931Z,21.70
2017-08-31T01:09:31.523Z,21.60
2017-08-31T01:11:59.055Z,21.60
2017-08-31T01:14:26.590Z,21.60
2017-08-31T01:16:54.095Z,21.60
2017-08-31T01:19:21.639Z,21.70
2017-08-31T01:21:49.146Z,21.70
2017-08-31T01:24:16.699Z,21.70
2017-08-31T01:26:47.237Z,21.60
2017-08-31T01:29:14.782Z,21.60
2017-08-31T01:31:42.280Z,21.50
2017-08-31T01:34:11.317Z,21.30
2017-08-31T01:36:42.303Z,21.10
2017-08-31T01:39:10.016Z,21.10
2017-08-31T01:41:37.538Z,21.10
2017-08-31T01:44:05.568Z,21.20
2017-08-31T01:46:33.172Z,21.30
2017-08-31T01:49:01.448Z,21.40
2017-08-31T01:51:32.990Z,21.40
2017-08-31T01:54:04.690Z,21.40
2017-08-31T01:56:32.662Z,21.30
2017-08-31T01:59:03.862Z,21.30
2017-08-31T02:01:31.364Z,21.40
2017-08-31T02:03:58.863Z,21.40
2017-08-31T02:06:27.264Z,21.40
2017-08-31T02:08:55.200Z,21.50
2017-08-31T02:11:22.724Z,21.40
2017-08-31T02:13:50.219Z,21.50
2017-08-31T02:16:17.755Z,21.50
2017-08-31T02:18:45.255Z,21.50
2017-08-31T02:21:12.756Z,21.50
2017-08-31T02:23:40.369Z,21.50
2017-08-31T02:26:08.676Z,21.40
2017-08-31T02:28:36.179Z,21.40
2017-08-31T02:31:03.696Z,21.40
2017-08-31T02:33:31.348Z,21.30
2017-08-31T02:35:59.106Z,21.20
2017-08-31T02:38:29.934Z,21.00
2017-08-31T02:40:57.427Z,21.00
2017-08-31T02:43:24.945Z,21.00
2017-08-31T02:45:52.476Z,21.20
2017-08-31T02:48:20.007Z,21.30
2017-08-31T02:50:47.522Z,21.30
2017-08-31T02:53:18.876Z,21.30
2017-08-31T02:55:46.366Z,21.30
2017-08-31T02:58:13.899Z,21.20
2017-08-31T03:00:41.671Z,21.10
2017-08-31T03:03:09.212Z,21.00
2017-08-31T03:05:36.781Z,21.10
2017-08-31T03:08:04.288Z,21.20
2017-08-31T03:10:31.821Z,21.10
2017-08-31T03:12:59.588Z,21.00
2017-08-31T03:15:27.377Z,21.00
2017-08-31T03:17:54.886Z,21.10
2017-08-31T03:20:22.510Z,21.10
2017-08-31T03:22:50.041Z,21.10
2017-08-31T03:25:17.786Z,21.10
2017-08-31T03:27:45.284Z,21.20
2017-08-31T03:30:12.820Z,21.20
2017-08-31T03:32:40.379Z,21.10
2017-08-31T03:35:07.891Z,21.00
2017-08-31T03:37:35.395Z,20.90
2017-08-31T03:40:06.259Z,20.80
2017-08-31T03:42:33.773Z,20.70
2017-08-31T03:45:02.048Z,20.20
2017-08-31T03:47:29.578Z,20.10
2017-08-31T03:49:57.085Z,20.10
2017-08-31T03:52:28.838Z,20.20
2017-08-31T03:54:56.760Z,20.30
2017-08-31T03:57:24.332Z,20.30
2017-08-31T03:59:51.827Z,20.20
2017-08-31T04:02:19.951Z,20.20
2017-08-31T04:04:47.476Z,20.10
2017-08-31T04:07:15.277Z,20.20
2017-08-31T04:09:42.815Z,20.30
2017-08-31T04:12:10.360Z,20.30
2017-08-31T04:14:37.863Z,20.30
2017-08-31T04:17:05.365Z,20.30
2017-08-31T04:19:32.907Z,20.30
2017-08-31T04:22:00.439Z,20.20
2017-08-31T04:24:27.949Z,20.20
2017-08-31T04:26:59.000Z,20.20
2017-08-31T04:29:26.503Z,20.30
2017-08-31T04:31:54.014Z,20.40
2017-08-31T04:34:21.779Z,20.40
2017-08-31T04:36:49.276Z,20.40
2017-08-31T04:39:20.338Z,20.30
2017-08-31T04:41:48.015Z,20.30
2017-08-31T04:44:15.858Z,20.40
2017-08-31T04:46:47.256Z,20.40
2017-08-31T04:49:14.807Z,20.40
2017-08-31T04:51:42.364Z,20.50
2017-08-31T04:54:09.863Z,20.50
2017-08-31T04:56:37.388Z,20.40
2017-08-31T04:59:04.938Z,20.40
2017-08-31T05:01:32.571Z,20.40
2017-08-31T05:04:00.118Z,20.40
2017-08-31T05:06:27.626Z,20.50
2017-08-31T05:08:58.393Z,20.50
2017-08-31T05:11:26.712Z,20.60
2017-08-31T05:13:54.207Z,20.70
2017-08-31T05:16:21.745Z,20.80
2017-08-31T05:18:49.292Z,20.90
2017-08-31T05:21:16.868Z,21.00
2017-08-31T05:23:44.375Z,21.00
2017-08-31T05:26:11.888Z,20.80
2017-08-31T05:28:39.422Z,20.70
2017-08-31T05:31:07.623Z,20.70
2017-08-31T05:33:35.164Z,20.80
2017-08-31T05:36:02.711Z,20.90
2017-08-31T05:38:30.220Z,20.90
2017-08-31T05:41:00.267Z,20.90
2017-08-31T05:43:31.709Z,21.10
2017-08-31T05:45:59.688Z,21.40
2017-08-31T05:48:27.207Z,21.70
2017-08-31T05:50:54.720Z,22.10
2017-08-31T05:53:22.246Z,22.30
2017-08-31T05:55:49.755Z,22.30
2017-08-31T05:58:17.327Z,22.30
2017-08-31T06:00:44.837Z,22.30
2017-08-31T06:03:13.484Z,22.30
2017-08-31T06:05:40.999Z,22.30
2017-08-31T06:08:08.525Z,22.20
2017-08-31T06:10:38.667Z,22.10
2017-08-31T06:13:10.772Z,22.10
2017-08-31T06:15:38.332Z,22.00
2017-08-31T06:18:10.554Z,22.20
2017-08-31T06:20:38.092Z,22.40
2017-08-31T06:23:05.595Z,22.80
2017-08-31T06:25:33.824Z,23.20
2017-08-31T06:28:03.115Z,23.40
2017-08-31T06:30:30.688Z,23.40
2017-08-31T06:32:58.199Z,23.50
2017-08-31T06:35:25.704Z,23.60
2017-08-31T06:37:53.280Z,23.50
2017-08-31T06:40:21.251Z,23.10
2017-08-31T06:42:48.760Z,22.80
2017-08-31T06:45:20.341Z,22.80
2017-08-31T06:47:50.820Z,22.80
2017-08-31T06:50:18.348Z,23.00
2017-08-31T06:52:45.905Z,23.40
2017-08-31T06:55:13.452Z,23.90
2017-08-31T06:57:41.760Z,24.80
2017-08-31T07:00:09.300Z,24.80
2017-08-31T07:02:36.936Z,24.90
2017-08-31T07:05:04.530Z,24.80
2017-08-31T07:07:33.345Z,24.80
2017-08-31T07:10:00.853Z,24.90
2017-08-31T07:12:30.089Z,25.10
2017-08-31T07:15:00.933Z,25.40
2017-08-31T07:17:32.207Z,25.70
2017-08-31T07:19:59.717Z,25.60
2017-08-31T07:22:27.228Z,25.50
2017-08-31T07:24:54.786Z,25.40
2017-08-31T07:27:22.335Z,25.50
2017-08-31T07:29:49.932Z,25.40
2017-08-31T07:32:17.479Z,25.00
2017-08-31T07:34:45.020Z,24.50
2017-08-31T07:37:12.557Z,24.00
2017-08-31T07:39:40.065Z,23.60
2017-08-31T07:42:11.499Z,23.40
2017-08-31T07:44:39.500Z,23.50
2017-08-31T07:47:07.006Z,23.60
2017-08-31T07:49:34.511Z,23.80
2017-08-31T07:52:02.484Z,24.00
2017-08-31T07:54:29.999Z,24.80
2017-08-31T07:57:00.712Z,25.40
2017-08-31T07:59:28.218Z,25.80
2017-08-31T08:01:55.856Z,25.90
2017-08-31T08:04:23.416Z,25.90
2017-08-31T08:06:51.080Z,25.80
2017-08-31T08:09:18.683Z,25.70
2017-08-31T08:11:46.204Z,25.70
2017-08-31T08:14:17.600Z,26.10
2017-08-31T08:16:45.100Z,28.00
2017-08-31T08:19:12.604Z,31.70
2017-08-31T08:21:40.191Z,32.30
2017-08-31T08:24:07.753Z,31.70
2017-08-31T08:26:35.299Z,32.00
2017-08-31T08:29:02.832Z,34.30
2017-08-31T08:31:34.057Z,36.20
2017-08-31T08:34:09.023Z,35.30
2017-08-31T08:36:36.563Z,34.20
2017-08-31T08:39:04.223Z,32.20
2017-08-31T08:41:31.728Z,30.60
2017-08-31T08:43:59.244Z,29.20
2017-08-31T08:46:30.013Z,28.20
2017-08-31T08:48:57.547Z,27.70
2017-08-31T08:51:25.100Z,27.50
2017-08-31T08:53:52.601Z,27.40
2017-08-31T08:56:20.122Z,27.40
2017-08-31T08:58:50.959Z,27.30
2017-08-31T09:01:18.491Z,26.80
2017-08-31T09:03:46.047Z,26.40
2017-08-31T09:06:13.564Z,25.90
2017-08-31T09:08:41.060Z,25.40
2017-08-31T09:11:09.397Z,24.90
2017-08-31T09:13:36.944Z,24.90
2017-08-31T09:16:04.451Z,24.80
2017-08-31T09:18:32.088Z,24.60
2017-08-31T09:20:59.605Z,24.50
2017-08-31T09:23:27.155Z,24.30
2017-08-31T09:25:54.659Z,24.20
2017-08-31T09:28:25.977Z,24.10
2017-08-31T09:30:53.524Z,24.10
2017-08-31T09:33:21.041Z,24.00
2017-08-31T09:35:48.552Z,24.00
2017-08-31T09:38:16.109Z,23.80
2017-08-31T09:40:43.619Z,23.80
2017-08-31T09:43:11.186Z,23.70
2017-08-31T09:45:38.692Z,23.60
2017-08-31T09:48:07.164Z,23.50
2017-08-31T09:50:34.711Z,23.40
2017-08-31T09:53:02.221Z,23.40
2017-08-31T09:55:29.725Z,23.40
2017-08-31T09:57:57.259Z,23.60
2017-08-31T10:00:24.760Z,23.80
2017-08-31T10:02:52.407Z,24.00
2017-08-31T10:05:20.709Z,24.10
2017-08-31T10:07:48.252Z,24.00
2017-08-31T10:10:15.772Z,24.00
2017-08-31T10:12:43.272Z,23.90
2017-08-31T10:15:10.794Z,23.70
2017-08-31T10:17:38.900Z,23.60
2017-08-31T10:20:07.215Z,23.30
2017-08-31T10:22:34.765Z,23.30
2017-08-31T10:25:02.832Z,23.20
2017-08-31T10:27:30.336Z,23.00
2017-08-31T10:29:57.855Z,22.90
2017-08-31T10:32:25.360Z,22.80
2017-08-31T10:34:53.857Z,22.70
2017-08-31T10:37:21.364Z,22.60
2017-08-31T10:39:48.866Z,22.50
2017-08-31T10:42:16.370Z,22.30
2017-08-31T10:44:43.965Z,22.10
2017-08-31T10:47:11.516Z,22.00
2017-08-31T10:49:39.024Z,21.80
2017-08-31T10:52:06.527Z,21.70
2017-08-31T10:54:34.855Z,21.60
2017-08-31T10:57:02.368Z,21.70
2017-08-31T10:59:29.868Z,21.80
2017-08-31T11:01:57.387Z,22.00
2017-08-31T11:04:28.574Z,22.20
2017-08-31T11:06:56.928Z,22.80
2017-08-31T11:09:24.437Z,23.40
2017-08-31T11:11:51.954Z,24.00
2017-08-31T11:14:19.510Z,24.60
2017-08-31T11:16:47.012Z,25.00
2017-08-31T11:19:15.296Z,24.90
2017-08-31T11:21:42.816Z,24.90
2017-08-31T11:24:10.336Z,24.60
2017-08-31T11:26:37.921Z,24.30
2017-08-31T11:29:05.546Z,24.10
2017-08-31T11:31:33.073Z,23.70
2017-08-31T11:34:00.822Z,23.40
2017-08-31T11:36:28.365Z,23.10
2017-08-31T11:38:55.800Z,22.70
2017-08-31T11:41:23.339Z,22.50
2017-08-31T11:43:50.860Z,22.40
2017-08-31T11:46:18.363Z,22.50
2017-08-31T11:48:48.908Z,22.40
2017-08-31T11:51:16.407Z,22.40
2017-08-31T11:53:43.915Z,22.30
2017-08-31T11:56:11.428Z,22.20
2017-08-31T11:58:39.778Z,22.10
2017-08-31T12:01:07.284Z,21.90
2017-08-31T12:03:34.794Z,21.80
2017-08-31T12:06:02.296Z,21.60
2017-08-31T12:08:29.802Z,21.50
2017-08-31T12:10:57.355Z,21.50
2017-08-31T12:13:24.871Z,21.50
2017-08-31T12:15:56.227Z,21.50
2017-08-31T12:18:24.704Z,21.50
2017-08-31T12:20:52.268Z,21.40
2017-08-31T12:23:24.087Z,21.40
2017-08-31T12:25:51.638Z,21.40
2017-08-31T12:28:19.162Z,21.40
2017-08-31T12:30:47.520Z,21.30
2017-08-31T12:33:19.147Z,21.30
2017-08-31T12:35:47.456Z,21.30
2017-08-31T12:38:14.966Z,21.20
2017-08-31T12:40:42.472Z,21.00
2017-08-31T12:43:10.442Z,20.90
2017-08-31T12:45:38.880Z,20.70
2017-08-31T12:48:06.412Z,20.60
2017-08-31T12:50:33.913Z,20.40
2017-08-31T12:53:01.504Z,20.40
2017-08-31T12:55:29.014Z,20.30
2017-08-31T12:57:57.295Z,20.20
2017-08-31T13:00:24.840Z,20.10
2017-08-31T13:02:52.348Z,20.10
2017-08-31T13:05:19.856Z,20.10
2017-08-31T13:07:47.528Z,20.20
2017-08-31T13:10:15.085Z,20.30
2017-08-31T13:12:43.533Z,20.30
2017-08-31T13:15:12.495Z,20.30
2017-08-31T13:17:42.340Z,20.40
2017-08-31T13:20:13.747Z,20.40
2017-08-31T13:22:41.553Z,20.40
2017-08-31T13:25:09.116Z,20.30
2017-08-31T13:27:36.643Z,20.40
2017-08-31T13:30:04.185Z,20.30
2017-08-31T13:32:35.620Z,20.30
2017-08-31T13:35:03.143Z,20.40
2017-08-31T13:37:30.699Z,20.40
2017-08-31T13:39:58.831Z,20.50
2017-08-31T13:42:26.919Z,20.50
2017-08-31T13:44:54.431Z,20.50
2017-08-31T13:47:26.033Z,20.50
2017-08-31T13:49:54.295Z,20.50
2017-08-31T13:52:21.825Z,20.60
2017-08-31T13:54:50.516Z,20.60
2017-08-31T13:57:18.048Z,20.60
2017-08-31T13:59:46.323Z,20.60
2017-08-31T14:02:13.843Z,20.50
2017-08-31T14:04:41.352Z,20.60
2017-08-31T14:07:11.422Z,20.80
2017-08-31T14:09:40.120Z,21.00
2017-08-31T14:12:07.637Z,21.30
2017-08-31T14:14:35.184Z,21.50
2017-08-31T14:17:02.684Z,21.50
2017-08-31T14:19:34.185Z,21.40
2017-08-31T14:22:05.694Z,21.20
2017-08-31T14:24:33.251Z,21.00
2017-08-31T14:27:00.809Z,20.90
2017-08-31T14:29:28.412Z,20.90
2017-08-31T14:31:55.956Z,20.90
2017-08-31T14:34:24.458Z,20.90
2017-08-31T14:36:55.661Z,20.80
2017-08-31T14:39:23.755Z,20.60
2017-08-31T14:41:53.043Z,20.40
2017-08-31T14:44:20.544Z,20.20
2017-08-31T14:46:48.056Z,20.00
2017-08-31T14:49:18.491Z,20.00
2017-08-31T14:51:46.052Z,19.90
2017-08-31T14:54:13.556Z,19.70
2017-08-31T14:56:41.061Z,19.60
2017-08-31T14:59:09.451Z,19.40
2017-08-31T15:01:37.004Z,19.40
2017-08-31T15:04:10.919Z,19.30
2017-08-31T15:06:42.656Z,19.30
2017-08-31T15:09:10.171Z,19.20
2017-08-31T15:11:37.696Z,19.20
2017-08-31T15:14:05.251Z,19.20
2017-08-31T15:16:32.773Z,19.30
2017-08-31T15:19:00.352Z,19.30
2017-08-31T15:21:31.247Z,19.40
2017-08-31T15:24:02.781Z,19.40
2017-08-31T15:26:33.403Z,19.40
2017-08-31T15:29:01.476Z,19.40
2017-08-31T15:31:29.029Z,19.40
2017-08-31T15:33:59.783Z,19.40
2017-08-31T15:36:27.476Z,19.40
2017-08-31T15:38:55.688Z,19.30
2017-08-31T15:41:23.212Z,19.30
2017-08-31T15:43:50.766Z,19.30
2017-08-31T15:46:18.279Z,19.30
2017-08-31T15:48:45.806Z,19.20
2017-08-31T15:51:16.287Z,19.10
2017-08-31T15:53:44.323Z,19.10
2017-08-31T15:56:11.823Z,19.10
2017-08-31T15:58:42.669Z,19.10
2017-08-31T16:01:10.355Z,19.10
2017-08-31T16:03:37.929Z,19.10
2017-08-31T16:06:05.449Z,19.10
2017-08-31T16:08:32.993Z,19.10
2017-08-31T16:11:01.468Z,19.00
2017-08-31T16:13:28.972Z,19.00
2017-08-31T16:15:56.535Z,19.00
2017-08-31T16:18:24.832Z,18.90
2017-08-31T16:20:56.228Z,18.90
2017-08-31T16:23:31.259Z,18.80
2017-08-31T16:25:59.048Z,18.80
2017-08-31T16:28:26.625Z,18.80
2017-08-31T16:30:54.177Z,18.70
2017-08-31T16:33:21.684Z,18.70
2017-08-31T16:35:52.434Z,18.70
2017-08-31T16:38:19.948Z,18.70
2017-08-31T16:40:47.488Z,18.70
2017-08-31T16:43:15.034Z,18.60
2017-08-31T16:45:42.553Z,18.70
2017-08-31T16:48:10.060Z,18.90
2017-08-31T16:50:40.463Z,19.00
2017-08-31T16:53:09.264Z,19.00
2017-08-31T16:55:40.712Z,19.00
2017-08-31T16:58:08.211Z,19.00
2017-08-31T17:00:37.356Z,18.90
2017-08-31T17:03:04.863Z,18.90
2017-08-31T17:05:33.111Z,18.80
2017-08-31T17:08:00.624Z,18.70
2017-08-31T17:10:28.191Z,18.50
2017-08-31T17:12:55.689Z,18.40
2017-08-31T17:15:23.212Z,18.20
2017-08-31T17:17:50.708Z,18.20
2017-08-31T17:20:18.238Z,18.10
2017-08-31T17:22:45.749Z,18.10
2017-08-31T17:25:13.256Z,18.10
2017-08-31T17:27:40.795Z,18.00
2017-08-31T17:30:08.296Z,18.00
2017-08-31T17:32:35.820Z,17.90
2017-08-31T17:35:04.093Z,17.90
2017-08-31T17:37:31.596Z,17.90
2017-08-31T17:39:59.112Z,17.90
2017-08-31T17:42:27.381Z,17.90
2017-08-31T17:44:55.234Z,17.90
2017-08-31T17:47:22.811Z,17.90
2017-08-31T17:49:50.312Z,17.80
2017-08-31T17:52:17.851Z,17.80
2017-08-31T17:54:45.983Z,17.80
2017-08-31T17:57:13.551Z,17.80
2017-08-31T17:59:41.113Z,17.80
2017-08-31T18:02:08.623Z,17.80
2017-08-31T18:04:36.129Z,17.70
2017-08-31T18:07:04.233Z,17.70
2017-08-31T18:09:32.270Z,17.70
2017-08-31T18:12:00.476Z,17.70
2017-08-31T18:14:27.983Z,17.60
2017-08-31T18:16:55.495Z,17.60
2017-08-31T18:19:23.036Z,17.60
2017-08-31T18:21:50.541Z,17.50
2017-08-31T18:24:18.051Z,17.50
2017-08-31T18:26:45.573Z,17.40
2017-08-31T18:29:13.087Z,17.40
2017-08-31T18:31:41.352Z,17.40
2017-08-31T18:34:08.889Z,17.30
2017-08-31T18:36:36.500Z,17.30
2017-08-31T18:39:06.640Z,17.30
2017-08-31T18:41:34.180Z,17.30
2017-08-31T18:44:01.726Z,17.30
2017-08-31T18:46:30.009Z,17.20
2017-08-31T18:48:57.521Z,17.20
2017-08-31T18:51:25.069Z,17.20
2017-08-31T18:53:52.642Z,17.10
2017-08-31T18:56:20.149Z,17.10
2017-08-31T18:58:47.656Z,17.10
2017-08-31T19:01:15.271Z,17.20
2017-08-31T19:03:42.820Z,17.20
2017-08-31T19:06:11.026Z,17.20
2017-08-31T19:08:38.580Z,17.10
2017-08-31T19:11:07.294Z,17.10
2017-08-31T19:13:34.808Z,17.10
2017-08-31T19:16:03.085Z,17.10
2017-08-31T19:18:30.597Z,17.10
2017-08-31T19:20:58.139Z,17.10
2017-08-31T19:23:25.639Z,17.10
2017-08-31T19:25:55.523Z,17.10
2017-08-31T19:28:26.313Z,17.10
2017-08-31T19:30:53.856Z,17.10
2017-08-31T19:33:21.374Z,17.20
2017-08-31T19:35:48.937Z,17.20
2017-08-31T19:38:16.498Z,17.20
2017-08-31T19:40:44.000Z,17.20
2017-08-31T19:43:11.560Z,17.20
2017-08-31T19:45:39.080Z,17.20
2017-08-31T19:48:06.631Z,17.20
2017-08-31T19:50:34.360Z,17.20
2017-08-31T19:53:02.103Z,17.10
2017-08-31T19:55:37.501Z,17.10
2017-08-31T19:58:08.684Z,17.10
2017-08-31T20:00:36.196Z,17.10
2017-08-31T20:03:04.655Z,17.10
2017-08-31T20:05:32.214Z,17.00
2017-08-31T20:07:59.953Z,17.00
2017-08-31T20:10:27.477Z,17.00
2017-08-31T20:12:55.003Z,17.00
2017-08-31T20:15:22.552Z,17.00
2017-08-31T20:17:50.184Z,17.00
2017-08-31T20:20:17.709Z,17.00
2017-08-31T20:22:45.228Z,17.00
2017-08-31T20:25:20.019Z,17.00
2017-08-31T20:27:47.571Z,17.00
2017-08-31T20:30:15.101Z,17.00
2017-08-31T20:32:42.646Z,17.00
2017-08-31T20:35:11.271Z,16.90
2017-08-31T20:37:38.787Z,16.90
2017-08-31T20:40:09.672Z,16.90
2017-08-31T20:42:37.182Z,16.90
2017-08-31T20:45:04.806Z,16.90
2017-08-31T20:47:32.360Z,16.90
2017-08-31T20:49:59.881Z,16.90
2017-08-31T20:52:28.169Z,16.90
2017-08-31T20:55:03.176Z,16.90
2017-08-31T20:57:30.700Z,16.90
2017-08-31T20:59:58.225Z,16.90
2017-08-31T21:02:25.755Z,16.90
2017-08-31T21:04:53.279Z,16.90
2017-08-31T21:07:20.849Z,16.90
2017-08-31T21:09:55.357Z,16.90
2017-08-31T21:12:26.246Z,16.80
2017-08-31T21:14:54.562Z,16.80
2017-08-31T21:17:22.082Z,16.80
2017-08-31T21:19:49.636Z,16.80
2017-08-31T21:22:17.174Z,16.80
2017-08-31T21:24:44.697Z,16.70
2017-08-31T21:27:12.240Z,16.70
2017-08-31T21:29:39.812Z,16.70
2017-08-31T21:32:07.325Z,16.80
2017-08-31T21:34:34.848Z,16.80
2017-08-31T21:37:02.368Z,16.80
2017-08-31T21:39:29.886Z,16.80
2017-08-31T21:41:57.409Z,16.80
2017-08-31T21:44:24.927Z,16.80
2017-08-31T21:46:52.438Z,16.80
2017-08-31T21:49:19.972Z,16.80
2017-08-31T21:51:47.476Z,16.80
2017-08-31T21:54:15.795Z,16.80
2017-08-31T21:56:43.349Z,16.80
2017-08-31T21:59:11.451Z,16.80
2017-08-31T22:01:39.016Z,16.80
2017-08-31T22:04:07.189Z,16.80
2017-08-31T22:06:34.741Z,16.80
2017-08-31T22:09:02.248Z,16.80
2017-08-31T22:11:29.791Z,16.80
2017-08-31T22:13:57.295Z,16.80
2017-08-31T22:16:24.812Z,16.70
2017-08-31T22:18:52.315Z,16.70
2017-08-31T22:21:19.841Z,16.70
2017-08-31T22:23:47.366Z,16.70
2017-08-31T22:26:14.874Z,16.70
2017-08-31T22:28:42.397Z,16.60
2017-08-31T22:31:09.910Z,16.60
2017-08-31T22:33:37.415Z,16.60
2017-08-31T22:36:04.928Z,16.60
2017-08-31T22:38:32.447Z,16.60
2017-08-31T22:40:59.950Z,16.60
2017-08-31T22:43:27.464Z,16.60
2017-08-31T22:45:55.039Z,16.60
2017-08-31T22:48:22.688Z,16.60
2017-08-31T22:50:50.243Z,16.50
2017-08-31T22:53:17.765Z,16.50
2017-08-31T22:55:45.334Z,16.50
2017-08-31T22:58:15.686Z,16.50
2017-08-31T23:00:43.224Z,16.40
2017-08-31T23:03:11.725Z,16.40
2017-08-31T23:05:39.247Z,16.40
2017-08-31T23:08:06.771Z,16.40
2017-08-31T23:10:34.291Z,16.40
2017-08-31T23:13:01.799Z,16.40
2017-08-31T23:15:33.480Z,16.40
2017-08-31T23:18:00.992Z,16.40
2017-08-31T23:20:28.503Z,16.40
2017-08-31T23:22:56.116Z,16.30
2017-08-31T23:25:23.640Z,16.40
2017-08-31T23:27:51.149Z,16.30
2017-08-31T23:30:18.685Z,16.40
2017-08-31T23:32:46.195Z,16.40
2017-08-31T23:35:13.776Z,16.40
2017-08-31T23:37:41.347Z,16.40
2017-08-31T23:40:08.856Z,16.40
2017-08-31T23:42:36.372Z,16.40
2017-08-31T23:45:04.608Z,16.40
2017-08-31T23:47:32.183Z,16.40
2017-08-31T23:49:59.723Z,16.40
2017-08-31T23:52:27.231Z,16.40
2017-08-31T23:54:54.789Z,16.40
2017-08-31T23:57:22.632Z,16.30
2017-08-31T23:59:50.162Z,16.30
